Time;durP1;ratioP1;P1;durP2;ratioP2;P2;SDS_P1;SDS_P2;PMS_P1;PMS_P2;Temp;Humidity;BMP_temperature;BMP_pressure;BME280_temperature;BME280_humidity;BME280_pressure;Samples;Min_cycle;Max_cycle;Signal;HPM_P1;HPM_P2
2024/03/22 00:01:52;;;;;;;18.15;10.30;;;;;;;8.44;37.79;95019.53;5084368;28;20052;-76
2024/03/22 00:04:18;;;;;;;18.85;10.48;;;;;;;8.45;37.54;95012.84;5083336;28;20088;-75
2024/03/22 00:06:47;;;;;;;17.40;10.10;;;;;;;8.40;37.81;95015.31;5083788;28;20501;-76
2024/03/22 00:09:13;;;;;;;20.17;9.65;;;;;;;8.41;37.92;95014.09;5083451;28;20473;-75
2024/03/22 00:11:39;;;;;;;18.52;9.93;;;;;;;8.39;38.23;95019.25;5083332;28;20327;-74
2024/03/22 00:14:05;;;;;;;18.27;10.00;;;;;;;8.35;38.42;95008.31;5083548;28;20444;-77
2024/03/22 00:16:30;;;;;;;19.92;10.05;;;;;;;8.36;38.70;95017.31;5084545;28;20058;-75
2024/03/22 00:18:56;;;;;;;20.27;10.15;;;;;;;8.31;38.72;95001.34;5084045;28;20493;-75
2024/03/22 00:21:22;;;;;;;23.10;10.95;;;;;;;8.35;38.55;95015.75;5083520;28;20081;-75
2024/03/22 00:23:47;;;;;;;20.70;10.70;;;;;;;8.29;38.70;95009.22;5085363;28;20032;-76
2024/03/22 00:26:13;;;;;;;21.60;10.82;;;;;;;8.21;38.80;95008.59;5083006;28;20023;-74
2024/03/22 00:28:38;;;;;;;17.80;10.52;;;;;;;8.17;38.75;95008.66;5083674;28;20012;-75
2024/03/22 00:31:04;;;;;;;17.55;9.75;;;;;;;8.12;38.78;95005.63;5084600;28;20562;-74
2024/03/22 00:33:29;;;;;;;19.45;9.98;;;;;;;8.10;38.53;95002.53;5084686;28;20028;-75
2024/03/22 00:35:54;;;;;;;19.60;10.73;;;;;;;8.08;38.65;95013.13;5084856;28;20038;-76
2024/03/22 00:38:20;;;;;;;18.35;9.75;;;;;;;8.06;38.66;95016.28;5083275;28;20024;-75
2024/03/22 00:40:45;;;;;;;19.80;11.38;;;;;;;7.99;38.52;95016.41;5085428;28;20098;-75
2024/03/22 00:43:11;;;;;;;18.58;11.55;;;;;;;7.94;38.24;95022.34;5082933;28;20501;-75
2024/03/22 00:45:36;;;;;;;22.05;10.25;;;;;;;7.93;38.64;95026.28;5083774;28;20024;-75
2024/03/22 00:48:01;;;;;;;19.15;10.70;;;;;;;7.86;38.44;95004.53;5084586;28;20031;-75
2024/03/22 00:50:27;;;;;;;18.30;9.38;;;;;;;7.94;38.62;95022.34;5084854;28;20185;-76
2024/03/22 00:52:55;;;;;;;18.85;10.25;;;;;;;7.86;39.31;95012.75;5084389;28;20031;-76
2024/03/22 00:55:21;;;;;;;22.13;9.98;;;;;;;7.84;39.31;95012.38;5066349;28;20103;-75
2024/03/22 00:57:46;;;;;;;14.75;8.73;;;;;;;7.83;39.84;95014.31;5083876;28;20092;-75
2024/03/22 01:00:12;;;;;;;15.70;9.07;;;;;;;7.78;39.65;95006.59;5083491;28;20077;-74
2024/03/22 01:02:38;;;;;;;17.05;9.23;;;;;;;7.74;39.71;95011.34;5083519;28;20024;-75
2024/03/22 01:05:04;;;;;;;18.33;8.75;;;;;;;7.68;39.77;95018.47;5082724;28;20031;-74
2024/03/22 01:07:29;;;;;;;16.10;9.00;;;;;;;7.61;39.47;95013.91;5084822;28;20513;-74
2024/03/22 01:09:54;;;;;;;14.45;7.78;;;;;;;7.60;39.57;95017.84;5083638;28;20473;-74
2024/03/22 01:12:20;;;;;;;16.30;8.82;;;;;;;7.44;39.75;95007.53;5084111;28;20025;-74
2024/03/22 01:14:45;;;;;;;18.90;9.55;;;;;;;7.44;39.60;95012.22;5084089;28;20066;-74
2024/03/22 01:17:10;;;;;;;15.30;8.75;;;;;;;7.40;39.32;95011.53;5083691;28;20048;-77
2024/03/22 01:19:36;;;;;;;15.50;7.50;;;;;;;7.35;39.42;95018.22;5086733;28;20154;-77
2024/03/22 01:22:01;;;;;;;15.27;7.63;;;;;;;7.29;39.48;95016.38;5086328;28;20079;-76
2024/03/22 01:24:26;;;;;;;14.32;8.02;;;;;;;7.28;39.69;95014.81;5087562;28;20150;-76
2024/03/22 01:26:52;;;;;;;15.85;8.27;;;;;;;7.30;40.18;95015.97;5087874;28;20028;-76
2024/03/22 01:29:18;;;;;;;13.52;8.27;;;;;;;7.30;40.61;95012.44;5088645;28;20568;-76
2024/03/22 01:31:43;;;;;;;12.93;8.25;;;;;;;7.06;40.40;95009.66;5088110;28;20111;-76
2024/03/22 01:34:09;;;;;;;16.77;8.23;;;;;;;7.11;40.36;95017.41;5088049;28;20035;-76
2024/03/22 01:36:34;;;;;;;14.05;8.00;;;;;;;7.13;40.48;95012.28;5087081;28;20387;-76
2024/03/22 01:38:59;;;;;;;14.55;8.45;;;;;;;7.05;40.36;95016.28;5087749;28;20076;-75
2024/03/22 01:41:25;;;;;;;14.80;8.50;;;;;;;6.81;40.66;95010.00;5088968;28;20031;-76
2024/03/22 01:43:50;;;;;;;13.98;8.38;;;;;;;6.62;40.42;95007.91;5085956;28;20043;-76
2024/03/22 01:46:16;;;;;;;15.57;8.23;;;;;;;6.65;40.36;95010.59;5087026;28;20028;-76
2024/03/22 01:48:41;;;;;;;13.13;7.68;;;;;;;6.50;40.47;95008.44;5087536;28;20153;-76
2024/03/22 01:51:07;;;;;;;16.10;8.80;;;;;;;6.35;40.68;95008.59;5086401;28;20050;-74
2024/03/22 01:53:33;;;;;;;14.50;7.97;;;;;;;6.39;41.62;95008.56;5086390;28;20024;-75
2024/03/22 01:55:58;;;;;;;14.43;8.05;;;;;;;6.48;42.36;95013.53;5085732;28;20027;-75
2024/03/22 01:58:24;;;;;;;12.65;7.78;;;;;;;6.55;42.52;95008.78;5086985;28;20020;-75
2024/03/22 02:00:50;;;;;;;13.45;7.63;;;;;;;6.54;41.66;95006.47;5085586;28;20036;-75
2024/03/22 02:03:15;;;;;;;15.38;8.45;;;;;;;6.60;41.23;95005.59;5088270;28;20074;-76
2024/03/22 02:05:40;;;;;;;16.48;9.75;;;;;;;6.46;41.03;95003.00;5069782;28;20093;-75
2024/03/22 02:08:06;;;;;;;16.98;8.20;;;;;;;6.55;41.29;95006.03;5087861;28;20063;-75
2024/03/22 02:10:31;;;;;;;18.05;9.40;;;;;;;6.58;41.47;95004.44;5085484;28;20032;-76
2024/03/22 02:12:57;;;;;;;16.05;9.02;;;;;;;6.55;41.73;95006.03;5085720;28;20502;-76
2024/03/22 02:15:23;;;;;;;14.52;8.13;;;;;;;6.54;42.39;95007.22;5087378;28;20410;-75
2024/03/22 02:17:49;;;;;;;14.57;8.93;;;;;;;6.47;42.81;95004.56;5068340;28;20055;-75
2024/03/22 02:20:14;;;;;;;16.42;8.18;;;;;;;6.46;43.14;95004.97;5086575;28;20198;-76
2024/03/22 02:22:39;;;;;;;16.83;8.77;;;;;;;6.38;43.18;95018.72;5086727;28;20035;-76
2024/03/22 02:25:05;;;;;;;15.30;8.43;;;;;;;6.47;43.10;95001.84;5086515;28;20062;-75
2024/03/22 02:27:30;;;;;;;17.40;8.85;;;;;;;6.49;42.89;95006.91;5087586;28;20465;-75
2024/03/22 02:29:56;;;;;;;13.95;8.88;;;;;;;6.41;42.88;95013.63;5084789;28;20032;-75
2024/03/22 02:32:21;;;;;;;18.05;8.75;;;;;;;6.44;43.30;95012.81;5085595;28;20066;-75
2024/03/22 02:34:47;;;;;;;14.73;8.77;;;;;;;6.42;43.23;95020.63;5085104;28;20534;-75
2024/03/22 02:37:12;;;;;;;15.30;8.60;;;;;;;6.41;43.74;95033.50;5069164;28;20558;-74
2024/03/22 02:39:38;;;;;;;17.00;9.52;;;;;;;6.37;43.74;95019.13;5085398;28;20027;-75
2024/03/22 02:42:03;;;;;;;14.48;8.40;;;;;;;6.31;43.69;95021.53;5086032;28;20024;-75
2024/03/22 02:44:28;;;;;;;16.38;9.25;;;;;;;6.41;43.94;95032.72;5086481;28;20474;-76
2024/03/22 02:46:54;;;;;;;17.05;10.40;;;;;;;6.29;44.13;95023.88;5085440;28;20111;-75
2024/03/22 02:49:19;;;;;;;22.17;10.45;;;;;;;6.20;44.33;95037.25;5085136;28;20020;-75
2024/03/22 02:51:45;;;;;;;19.85;10.63;;;;;;;6.18;44.48;95036.09;5084741;28;20024;-75
2024/03/22 02:54:10;;;;;;;20.17;10.20;;;;;;;6.20;44.39;95041.94;5085851;28;20091;-76
2024/03/22 02:56:36;;;;;;;19.42;10.13;;;;;;;6.10;44.54;95044.38;5085182;28;20446;-75
2024/03/22 02:59:01;;;;;;;17.55;10.02;;;;;;;6.08;44.52;95052.19;5087030;28;20023;-75
2024/03/22 03:01:27;;;;;;;15.68;9.93;;;;;;;6.02;44.46;95033.91;5086016;28;20491;-76
2024/03/22 03:03:52;;;;;;;14.70;8.57;;;;;;;6.05;44.10;95058.44;5085499;28;20057;-75
2024/03/22 03:06:19;;;;;;;19.00;9.60;;;;;;;6.05;44.27;95050.25;5084827;28;20040;-75
2024/03/22 03:08:45;;;;;;;16.88;8.60;;;;;;;6.05;44.25;95053.00;5086445;28;20020;-75
2024/03/22 03:11:10;;;;;;;16.73;9.10;;;;;;;6.08;44.55;95052.19;5085269;28;20031;-76
2024/03/22 03:13:36;;;;;;;17.48;8.30;;;;;;;6.06;44.48;95048.31;5086153;28;20040;-76
2024/03/22 03:16:03;;;;;;;15.20;8.60;;;;;;;6.06;44.68;95053.75;5086124;28;20131;-75
2024/03/22 03:18:28;;;;;;;22.10;9.13;;;;;;;6.02;44.84;95056.53;5084489;28;20081;-76
2024/03/22 03:20:54;;;;;;;21.95;8.93;;;;;;;5.87;44.82;95044.16;5085076;28;20024;-75
2024/03/22 03:23:19;;;;;;;17.42;9.43;;;;;;;5.81;45.07;95053.97;5084349;28;20108;-75
2024/03/22 03:25:45;;;;;;;18.90;10.13;;;;;;;5.73;45.71;95066.88;5086002;28;20080;-76
2024/03/22 03:28:12;;;;;;;22.77;10.35;;;;;;;5.71;45.76;95065.72;5084561;28;20055;-76
2024/03/22 03:30:38;;;;;;;18.02;9.23;;;;;;;5.73;45.18;95057.91;5084152;28;20040;-75
2024/03/22 03:33:03;;;;;;;22.48;10.02;;;;;;;5.71;45.41;95069.22;5084522;28;20024;-75
2024/03/22 03:35:31;;;;;;;22.02;9.65;;;;;;;5.62;45.42;95077.13;5084325;28;20111;-75
2024/03/22 03:37:57;;;;;;;16.70;9.20;;;;;;;5.53;45.64;95068.59;5085172;28;20051;-75
2024/03/22 03:40:24;;;;;;;17.25;8.63;;;;;;;5.45;45.63;95065.16;5084902;28;20130;-74
2024/03/22 03:42:50;;;;;;;15.73;8.98;;;;;;;5.38;45.95;95078.03;5084213;28;20384;-76
2024/03/22 03:45:15;;;;;;;20.77;9.77;;;;;;;5.34;45.97;95075.38;5084314;28;20074;-76
2024/03/22 03:47:41;;;;;;;19.05;9.73;;;;;;;5.32;45.93;95074.97;5085589;28;20047;-75
2024/03/22 03:50:06;;;;;;;22.10;9.75;;;;;;;5.38;45.71;95078.81;5084269;28;20028;-76
2024/03/22 03:52:32;;;;;;;20.75;8.93;;;;;;;5.39;45.69;95083.13;5085046;28;20690;-75
2024/03/22 03:54:57;;;;;;;18.45;10.10;;;;;;;5.37;45.87;95087.41;5084312;28;20174;-75
2024/03/22 03:57:23;;;;;;;17.38;10.55;;;;;;;5.22;46.50;95078.56;5083664;28;20028;-75
2024/03/22 03:59:48;;;;;;;22.02;11.50;;;;;;;5.18;46.34;95085.97;5085723;28;20111;-75
2024/03/22 04:02:13;;;;;;;16.25;9.75;;;;;;;5.23;46.43;95091.00;5084958;28;20046;-75
2024/03/22 04:04:39;;;;;;;21.85;11.55;;;;;;;5.17;46.79;95087.91;5067148;28;20028;-73
2024/03/22 04:07:04;;;;;;;24.17;11.35;;;;;;;5.05;47.21;95094.59;5083667;28;20059;-75
2024/03/22 04:09:30;;;;;;;19.50;12.10;;;;;;;4.93;47.42;95100.50;5083516;28;20032;-76
2024/03/22 04:11:58;;;;;;;19.23;12.13;;;;;;;4.92;47.45;95101.66;5083135;28;20043;-75
2024/03/22 04:14:24;;;;;;;20.52;11.75;;;;;;;4.94;47.59;95104.78;5083735;28;20081;-76
2024/03/22 04:16:49;;;;;;;22.92;11.27;;;;;;;4.91;47.57;95105.56;5084713;28;20044;-75
2024/03/22 04:19:15;;;;;;;18.92;11.98;;;;;;;4.94;47.73;95099.31;5083956;28;20397;-76
2024/03/22 04:21:40;;;;;;;20.30;12.40;;;;;;;4.82;48.12;95104.41;5085289;28;20031;-75
2024/03/22 04:24:06;;;;;;;23.15;12.35;;;;;;;4.76;48.28;95099.41;5083229;28;20478;-75
2024/03/22 04:26:31;;;;;;;20.67;11.95;;;;;;;4.74;48.09;95100.94;5083571;28;20103;-74
2024/03/22 04:28:57;;;;;;;21.60;11.65;;;;;;;4.77;48.03;95109.13;5083512;28;20422;-75
2024/03/22 04:31:22;;;;;;;23.20;11.45;;;;;;;4.80;47.92;95115.72;5084484;28;20032;-75
2024/03/22 04:33:47;;;;;;;19.33;10.77;;;;;;;4.84;47.84;95111.03;5084959;28;20116;-74
2024/03/22 04:36:13;;;;;;;24.27;11.90;;;;;;;4.72;48.13;95112.25;5083039;28;20020;-75
2024/03/22 04:38:38;;;;;;;21.75;12.10;;;;;;;4.87;48.16;95120.34;5083851;28;20099;-74
2024/03/22 04:41:04;;;;;;;23.95;12.32;;;;;;;4.95;47.98;95130.06;5082691;28;20495;-75
2024/03/22 04:43:29;;;;;;;22.17;11.57;;;;;;;4.92;48.17;95126.16;5084766;28;20036;-77
2024/03/22 04:45:55;;;;;;;23.80;12.02;;;;;;;4.98;47.99;95129.25;5084271;28;20456;-75
2024/03/22 04:48:21;;;;;;;20.15;11.82;;;;;;;5.01;47.75;95131.22;5083351;28;20030;-75
2024/03/22 04:50:49;;;;;;;20.77;11.43;;;;;;;5.05;47.79;95134.69;5083112;28;20054;-75
2024/03/22 04:53:15;;;;;;;36.03;12.95;;;;;;;5.11;47.69;95133.13;5066109;28;20031;-76
2024/03/22 04:55:44;;;;;;;24.58;13.38;;;;;;;5.15;47.74;95124.91;5083892;28;20418;-75
2024/03/22 04:58:14;;;;;;;21.27;12.52;;;;;;;5.14;47.84;95131.53;5082775;28;20020;-75
2024/03/22 05:00:40;;;;;;;29.67;13.10;;;;;;;5.21;47.50;95135.00;5066556;28;20032;-75
2024/03/22 05:03:05;;;;;;;24.38;14.15;;;;;;;5.21;47.74;95143.16;5065771;28;20032;-78
2024/03/22 05:05:31;;;;;;;30.25;13.43;;;;;;;5.22;47.93;95133.06;5084305;28;20031;-76
2024/03/22 05:07:56;;;;;;;29.30;13.95;;;;;;;5.26;47.86;95137.31;5083085;28;20028;-77
2024/03/22 05:10:22;;;;;;;33.30;13.90;;;;;;;5.36;47.78;95141.16;5065470;28;20489;-77
2024/03/22 05:12:47;;;;;;;23.45;14.02;;;;;;;5.32;47.80;95141.16;5084568;28;20372;-74
2024/03/22 05:15:12;;;;;;;26.17;14.55;;;;;;;5.40;47.88;95141.91;5082372;28;20072;-75
2024/03/22 05:17:39;;;;;;;31.98;13.95;;;;;;;5.43;47.66;95141.09;5083274;28;20052;-75
2024/03/22 05:20:05;;;;;;;33.13;14.95;;;;;;;5.48;47.62;95150.81;5083194;28;20108;-75
2024/03/22 05:22:31;;;;;;;34.83;15.00;;;;;;;5.52;47.62;95154.31;5083044;28;20047;-76
2024/03/22 05:24:56;;;;;;;36.83;15.60;;;;;;;5.53;47.56;95153.91;5065758;28;20032;-75
2024/03/22 05:27:22;;;;;;;25.60;13.90;;;;;;;5.57;47.64;95162.09;5083917;28;20037;-75
2024/03/22 05:29:47;;;;;;;28.27;14.90;;;;;;;5.63;47.32;95157.75;5065822;28;20048;-75
2024/03/22 05:32:12;;;;;;;32.17;14.98;;;;;;;5.68;47.44;95165.53;5082425;28;20035;-75
2024/03/22 05:34:38;;;;;;;31.20;14.15;;;;;;;5.72;47.58;95166.25;5084211;28;20457;-75
2024/03/22 05:37:03;;;;;;;33.30;16.02;;;;;;;5.75;47.40;95168.19;5082796;28;20027;-75
2024/03/22 05:39:29;;;;;;;35.28;15.40;;;;;;;5.80;47.20;95167.78;5084557;28;20032;-75
2024/03/22 05:41:54;;;;;;;32.33;16.90;;;;;;;5.89;47.20;95175.50;5082706;28;20039;-76
2024/03/22 05:44:23;;;;;;;36.55;16.98;;;;;;;5.90;47.22;95174.31;5084385;28;20058;-76
2024/03/22 05:46:48;;;;;;;32.10;16.98;;;;;;;5.92;47.35;95174.75;5084408;28;20020;-75
2024/03/22 05:49:14;;;;;;;33.55;15.07;;;;;;;5.97;46.99;95177.03;5082660;28;20036;-76
2024/03/22 05:51:39;;;;;;;31.75;14.25;;;;;;;6.02;46.29;95175.81;5083149;28;20068;-76
2024/03/22 05:54:04;;;;;;;21.30;13.20;;;;;;;6.04;46.29;95174.25;5083996;28;20081;-76
2024/03/22 05:56:30;;;;;;;23.98;13.40;;;;;;;6.11;45.96;95178.88;5083413;28;20428;-76
2024/03/22 05:58:55;;;;;;;24.35;15.50;;;;;;;6.17;45.49;95179.22;5082078;28;20028;-75
2024/03/22 06:01:21;;;;;;;29.35;14.35;;;;;;;6.24;45.26;95185.41;5065873;28;20031;-75
2024/03/22 06:03:46;;;;;;;28.50;14.25;;;;;;;6.31;45.23;95179.13;5066209;28;20032;-75
2024/03/22 06:06:12;;;;;;;27.00;15.05;;;;;;;6.37;44.93;95185.69;5087199;28;20059;-76
2024/03/22 06:08:39;;;;;;;25.58;15.50;;;;;;;6.43;45.18;95184.09;5087038;28;20042;-75
2024/03/22 06:11:06;;;;;;;29.90;15.02;;;;;;;6.48;44.97;95178.19;5086703;28;20046;-77
2024/03/22 06:13:32;;;;;;;26.88;14.55;;;;;;;6.52;45.06;95178.13;5086931;28;20066;-74
2024/03/22 06:15:58;;;;;;;29.45;15.45;;;;;;;6.52;45.03;95176.19;5086860;28;20525;-76
2024/03/22 06:18:23;;;;;;;26.80;15.02;;;;;;;6.57;45.26;95183.16;5086456;28;20081;-76
2024/03/22 06:20:49;;;;;;;30.80;15.38;;;;;;;6.63;44.87;95185.06;5087731;28;20101;-75
2024/03/22 06:23:14;;;;;;;25.95;13.70;;;;;;;6.69;44.30;95181.88;5086243;28;20111;-76
2024/03/22 06:25:39;;;;;;;26.05;15.27;;;;;;;6.78;43.96;95180.22;5092816;28;20052;-75
2024/03/22 06:28:05;;;;;;;25.17;15.07;;;;;;;6.88;43.75;95182.09;5085883;28;20059;-75
2024/03/22 06:30:30;;;;;;;25.42;14.52;;;;;;;6.92;43.54;95176.56;5087632;28;20486;-76
2024/03/22 06:32:56;;;;;;;28.83;15.10;;;;;;;6.98;43.50;95174.16;5085281;28;20108;-76
2024/03/22 06:35:22;;;;;;;26.45;16.23;;;;;;;7.05;43.54;95182.28;5087583;28;20423;-76
2024/03/22 06:37:48;;;;;;;35.13;16.90;;;;;;;7.16;43.33;95185.66;5086860;28;20578;-76
2024/03/22 06:40:14;;;;;;;33.90;18.38;;;;;;;7.26;43.07;95186.72;5085708;28;20046;-75
2024/03/22 06:42:39;;;;;;;29.02;16.27;;;;;;;7.31;42.89;95194.47;5085676;28;20502;-76
2024/03/22 06:45:05;;;;;;;33.13;16.55;;;;;;;7.39;42.78;95195.94;5086487;28;20080;-75
2024/03/22 06:47:31;;;;;;;31.20;16.25;;;;;;;7.43;42.91;95183.78;5085887;28;20096;-75
2024/03/22 06:49:56;;;;;;;26.45;15.48;;;;;;;7.51;42.65;95195.38;5086293;28;20028;-74
2024/03/22 06:52:22;;;;;;;25.02;13.43;;;;;;;7.58;42.41;95194.53;5087362;28;20017;-75
2024/03/22 06:54:47;;;;;;;23.85;13.13;;;;;;;7.67;42.04;95198.31;5086684;28;20043;-76
2024/03/22 06:57:12;;;;;;;22.85;13.15;;;;;;;7.71;41.80;95195.53;5085504;28;20031;-78
2024/03/22 06:59:38;;;;;;;25.17;13.00;;;;;;;7.78;41.77;95200.91;5086804;28;20134;-78
2024/03/22 07:02:03;;;;;;;18.77;12.23;;;;;;;7.82;41.75;95204.38;5085184;28;20475;-78
2024/03/22 07:04:29;;;;;;;24.35;13.32;;;;;;;7.95;41.68;95204.56;5085597;28;20032;-76
2024/03/22 07:06:54;;;;;;;23.67;11.85;;;;;;;8.05;41.46;95211.88;5083437;28;20028;-76
2024/03/22 07:09:20;;;;;;;23.13;12.75;;;;;;;8.11;40.94;95206.69;5086927;28;20047;-77
2024/03/22 07:11:46;;;;;;;21.52;11.40;;;;;;;8.27;41.20;95208.81;5084200;28;20032;-76
2024/03/22 07:14:12;;;;;;;25.05;12.23;;;;;;;8.37;41.18;95208.69;5084838;28;20030;-76
2024/03/22 07:16:37;;;;;;;25.13;12.57;;;;;;;8.46;41.32;95205.41;5085985;28;20135;-76
2024/03/22 07:19:03;;;;;;;23.38;12.25;;;;;;;8.59;41.11;95209.09;5084848;28;20056;-77
2024/03/22 07:21:29;;;;;;;25.00;12.35;;;;;;;8.77;40.51;95211.50;5085002;28;20038;-76
2024/03/22 07:23:54;;;;;;;20.42;11.88;;;;;;;8.88;40.10;95214.84;5085576;28;20042;-77
2024/03/22 07:26:20;;;;;;;22.08;11.68;;;;;;;8.93;40.00;95210.84;5085128;28;20135;-76
2024/03/22 07:28:45;;;;;;;24.38;12.55;;;;;;;9.00;39.83;95211.53;5084511;28;20598;-77
2024/03/22 07:31:10;;;;;;;19.35;12.35;;;;;;;9.09;40.10;95210.19;5087646;28;20039;-75
2024/03/22 07:33:36;;;;;;;21.10;12.00;;;;;;;9.24;40.05;95208.72;5090656;28;20497;-78
2024/03/22 07:36:02;;;;;;;24.10;10.65;;;;;;;9.32;40.08;95210.13;5086135;28;20024;-77
2024/03/22 07:38:28;;;;;;;21.15;11.30;;;;;;;9.46;39.59;95215.34;5085829;28;20032;-79
2024/03/22 07:40:54;;;;;;;17.17;10.93;;;;;;;9.55;39.48;95218.28;5084544;28;20492;-78
2024/03/22 07:43:19;;;;;;;26.08;12.27;;;;;;;9.68;39.09;95212.91;5085990;28;20044;-78
2024/03/22 07:45:45;;;;;;;21.50;11.48;;;;;;;9.70;39.19;95213.28;5085652;28;20050;-77
2024/03/22 07:48:11;;;;;;;18.23;10.95;;;;;;;9.83;38.95;95208.69;5086288;28;20104;-77
2024/03/22 07:50:36;;;;;;;17.42;9.68;;;;;;;9.85;38.52;95203.53;5085452;28;20107;-76
2024/03/22 07:53:02;;;;;;;16.05;9.57;;;;;;;10.02;38.02;95198.06;5084238;28;20119;-76
2024/03/22 07:55:27;;;;;;;17.35;9.48;;;;;;;10.24;37.79;95204.66;5084061;28;20077;-76
2024/03/22 07:57:52;;;;;;;16.98;8.70;;;;;;;10.47;37.30;95208.44;5084489;28;20031;-76
2024/03/22 08:00:18;;;;;;;12.23;7.78;;;;;;;10.61;36.83;95211.63;5082723;28;20107;-76
2024/03/22 08:02:43;;;;;;;15.38;9.80;;;;;;;10.73;36.57;95209.41;5083159;28;20520;-77
2024/03/22 08:05:09;;;;;;;15.88;8.40;;;;;;;10.94;36.59;95205.31;5083461;28;20432;-76
2024/03/22 08:07:34;;;;;;;9.90;7.18;;;;;;;11.11;36.06;95209.56;5084445;28;20032;-77
2024/03/22 08:10:01;;;;;;;9.45;5.93;;;;;;;11.21;35.72;95208.53;5083531;28;20027;-76
2024/03/22 08:12:27;;;;;;;8.85;6.00;;;;;;;11.38;35.39;95218.28;5066551;28;20066;-76
2024/03/22 08:14:52;;;;;;;9.73;5.63;;;;;;;11.52;35.29;95213.56;5084115;28;20132;-76
2024/03/22 08:17:18;;;;;;;9.05;5.55;;;;;;;11.70;34.86;95211.88;5083176;28;20579;-76
2024/03/22 08:19:44;;;;;;;6.65;4.60;;;;;;;11.85;34.18;95211.47;5083674;28;20051;-75
2024/03/22 08:22:10;;;;;;;5.80;4.55;;;;;;;11.95;34.06;95207.66;5085194;28;20032;-75
2024/03/22 08:24:37;;;;;;;6.82;4.10;;;;;;;12.11;33.54;95196.53;5066530;28;20044;-76
2024/03/22 08:27:03;;;;;;;6.70;4.57;;;;;;;12.31;33.67;95193.53;5066564;28;20448;-77
2024/03/22 08:29:28;;;;;;;6.35;3.70;;;;;;;12.41;33.26;95195.19;5083427;28;20124;-76
2024/03/22 08:31:54;;;;;;;6.28;3.65;;;;;;;12.65;32.66;95192.84;5083835;28;20030;-77
2024/03/22 08:34:19;;;;;;;5.30;3.42;;;;;;;12.81;32.65;95199.44;5083105;28;20028;-77
2024/03/22 08:36:45;;;;;;;9.18;3.90;;;;;;;13.00;32.03;95198.38;5082914;28;20103;-76
2024/03/22 08:39:10;;;;;;;6.43;3.92;;;;;;;13.20;31.75;95200.88;5083860;28;20020;-78
2024/03/22 08:41:37;;;;;;;6.15;3.47;;;;;;;13.42;31.01;95196.19;5093507;28;20040;-77
2024/03/22 08:44:02;;;;;;;7.85;4.20;;;;;;;13.68;31.30;95198.81;5086129;28;20032;-76
2024/03/22 08:46:28;;;;;;;5.35;3.70;;;;;;;14.00;30.59;95197.63;5084589;28;20047;-77
2024/03/22 08:48:53;;;;;;;3.97;3.05;;;;;;;14.28;30.22;95201.28;5083616;28;20501;-77
2024/03/22 08:51:19;;;;;;;4.75;3.22;;;;;;;14.56;29.66;95200.16;5082751;28;20040;-77
2024/03/22 08:53:44;;;;;;;5.90;3.67;;;;;;;14.82;28.76;95205.47;5083406;28;20024;-78
2024/03/22 08:56:11;;;;;;;4.75;3.20;;;;;;;15.04;28.96;95208.13;5084213;28;20020;-77
2024/03/22 08:58:36;;;;;;;5.63;3.75;;;;;;;15.24;28.54;95205.66;5084610;28;20031;-76
2024/03/22 09:01:01;;;;;;;7.63;4.13;;;;;;;15.48;28.12;95202.28;5084342;28;20024;-77
2024/03/22 09:03:27;;;;;;;5.53;3.72;;;;;;;15.71;27.50;95200.91;5082978;28;20020;-75
2024/03/22 09:05:53;;;;;;;5.97;3.67;;;;;;;15.96;27.13;95195.03;5083410;28;20477;-76
2024/03/22 09:08:19;;;;;;;8.75;4.32;;;;;;;16.17;27.36;95188.50;5084160;28;20032;-76
2024/03/22 09:10:45;;;;;;;6.40;4.40;;;;;;;16.48;26.81;95190.22;5084608;28;20017;-77
2024/03/22 09:13:12;;;;;;;6.45;3.55;;;;;;;16.73;26.44;95180.72;5084416;28;20021;-78
2024/03/22 09:15:38;;;;;;;5.40;3.30;;;;;;;17.04;26.26;95180.38;5083589;28;20084;-75
2024/03/22 09:18:04;;;;;;;6.50;3.75;;;;;;;17.44;25.86;95174.38;5083005;28;20044;-77
2024/03/22 09:20:29;;;;;;;4.85;3.13;;;;;;;17.78;25.08;95180.59;5082819;28;20727;-78
2024/03/22 09:22:55;;;;;;;4.57;3.47;;;;;;;17.98;24.76;95174.34;5085487;28;20067;-77
2024/03/22 09:25:20;;;;;;;8.35;3.47;;;;;;;18.25;24.51;95179.59;5084749;28;20036;-78
2024/03/22 09:27:46;;;;;;;7.45;3.58;;;;;;;18.45;24.18;95176.09;5083928;28;20561;-77
2024/03/22 09:30:12;;;;;;;6.85;3.22;;;;;;;18.70;23.77;95174.00;5082754;28;20032;-76
2024/03/22 09:32:38;;;;;;;5.45;2.85;;;;;;;19.04;23.23;95170.41;5084528;28;20048;-77
2024/03/22 09:35:04;;;;;;;8.75;3.33;;;;;;;19.32;23.43;95167.94;5083052;28;20089;-77
2024/03/22 09:37:29;;;;;;;4.68;3.03;;;;;;;19.63;22.65;95167.31;5083207;28;20047;-78
2024/03/22 09:39:54;;;;;;;4.68;3.30;;;;;;;19.99;21.91;95167.16;5086914;28;20093;-77
2024/03/22 09:42:22;;;;;;;5.88;3.63;;;;;;;20.29;21.64;95154.47;5086454;28;20036;-77
2024/03/22 09:44:48;;;;;;;10.18;4.40;;;;;;;20.60;22.00;95164.91;5087387;28;20545;-77
2024/03/22 09:47:18;;;;;;;5.72;3.85;;;;;;;20.96;21.23;95162.56;5087774;28;20025;-77
2024/03/22 09:49:48;;;;;;;6.30;3.50;;;;;;;21.27;21.01;95163.72;5087064;28;20111;-77
2024/03/22 09:52:14;;;;;;;5.60;3.53;;;;;;;21.51;20.88;95164.13;5086460;28;20028;-77
2024/03/22 09:54:41;;;;;;;6.07;3.40;;;;;;;21.52;20.23;95148.84;5097507;28;20035;-76
2024/03/22 09:57:11;;;;;;;4.78;3.35;;;;;;;21.52;20.25;95145.31;5070087;28;20486;-75
2024/03/22 09:59:36;;;;;;;5.07;3.28;;;;;;;21.77;19.87;95157.56;5086466;28;20050;-78
2024/03/22 10:02:02;;;;;;;5.00;3.60;;;;;;;22.15;19.72;95134.50;5086850;28;20028;-76
2024/03/22 10:04:28;;;;;;;6.65;3.75;;;;;;;22.87;18.82;95146.13;5087885;28;20043;-78
2024/03/22 10:06:53;;;;;;;7.25;3.65;;;;;;;23.51;18.50;95144.91;5087600;28;20024;-83
2024/03/22 10:09:19;;;;;;;5.13;3.10;;;;;;;24.18;17.33;95149.38;5087296;28;20032;-78
2024/03/22 10:11:44;;;;;;;5.60;3.03;;;;;;;24.75;17.13;95146.88;5086069;28;20455;-75
2024/03/22 10:14:11;;;;;;;4.35;3.03;;;;;;;25.50;16.41;95144.28;5088896;28;20039;-88
2024/03/22 10:16:36;;;;;;;4.30;3.05;;;;;;;26.16;15.65;95155.94;5089011;28;20047;-76
2024/03/22 10:19:02;;;;;;;5.50;3.80;;;;;;;27.06;15.04;95148.81;5069484;28;20020;-75
2024/03/22 10:21:28;;;;;;;4.55;3.30;;;;;;;28.02;14.41;95144.81;5087149;28;20016;-75
2024/03/22 10:23:54;;;;;;;2.92;2.50;;;;;;;28.77;13.83;95134.81;5086276;28;20028;-77
2024/03/22 10:26:19;;;;;;;4.53;3.20;;;;;;;29.50;13.37;95144.97;5085592;28;20085;-75
2024/03/22 10:28:46;;;;;;;3.70;2.92;;;;;;;30.05;12.78;95138.22;5087548;28;20101;-77
2024/03/22 10:31:14;;;;;;;6.70;3.95;;;;;;;30.61;12.39;95134.38;5085322;28;20028;-77
2024/03/22 10:33:41;;;;;;;5.15;3.03;;;;;;;31.22;11.74;95130.78;5087505;28;20036;-76
2024/03/22 10:36:07;;;;;;;3.47;2.60;;;;;;;31.58;11.48;95132.63;5085771;28;20059;-76
2024/03/22 10:38:32;;;;;;;6.40;2.90;;;;;;;32.14;11.30;95134.13;5086728;28;20059;-77
2024/03/22 10:40:59;;;;;;;3.75;3.08;;;;;;;32.47;10.83;95115.00;5087297;28;20042;-76
2024/03/22 10:43:25;;;;;;;4.78;2.90;;;;;;;32.78;10.56;95117.59;5085211;28;20020;-77
2024/03/22 10:45:51;;;;;;;6.10;3.47;;;;;;;33.20;10.74;95117.59;5087338;28;20331;-76
2024/03/22 10:48:18;;;;;;;6.43;3.20;;;;;;;33.62;10.39;95118.94;5068601;28;20030;-76
2024/03/22 10:50:43;;;;;;;5.80;3.35;;;;;;;34.03;10.22;95115.22;5085727;28;20028;-75
2024/03/22 10:53:20;;;;;;;6.00;2.90;;;;;;;34.29;9.76;95122.25;5086920;28;20077;-77
2024/03/22 10:55:46;;;;;;;4.45;2.70;;;;;;;34.46;9.79;95107.19;5085153;28;20051;-77
2024/03/22 10:58:22;;;;;;;5.90;3.70;;;;;;;34.78;9.21;95105.38;5085421;28;20162;-77
2024/03/22 11:00:50;;;;;;;4.22;2.90;;;;;;;34.86;9.42;95098.19;5085224;28;20041;-77
2024/03/22 11:03:16;;;;;;;4.15;2.88;;;;;;;32.86;10.18;95095.53;5085280;28;20545;-77
2024/03/22 11:05:49;;;;;;;2.80;2.33;;;;;;;32.60;10.10;95093.28;5085068;28;20095;-76
2024/03/22 11:08:26;;;;;;;4.95;2.67;;;;;;;32.27;10.59;95084.00;5088338;28;20031;-76
2024/03/22 11:10:52;;;;;;;3.03;2.35;;;;;;;31.07;11.47;95076.88;5091334;28;20059;-76
2024/03/22 11:13:18;;;;;;;3.58;2.60;;;;;;;30.58;11.68;95089.38;5084431;28;20470;-75
2024/03/22 11:15:43;;;;;;;5.72;2.90;;;;;;;30.39;11.93;95076.34;5085145;28;20036;-75
2024/03/22 11:18:09;;;;;;;5.55;2.97;;;;;;;30.01;12.17;95072.66;5084544;28;20055;-76
2024/03/22 11:20:37;;;;;;;4.22;2.90;;;;;;;30.63;11.88;95075.00;5085128;28;20477;-76
2024/03/22 11:23:06;;;;;;;3.65;2.55;;;;;;;31.07;11.20;95076.88;5084641;28;20060;-76